Time;durP1;ratioP1;P1;durP2;ratioP2;P2;SDS_P1;SDS_P2;PMS_P1;PMS_P2;Temp;Humidity;BMP_temperature;BMP_pressure;BME280_temperature;BME280_humidity;BME280_pressure;Samples;Min_cycle;Max_cycle;Signal;HPM_P1;HPM_P2
2022/10/21 00:00:33;;;;;;;22.95;12.23;;;;;;;8.32;59.88;100978.09;5020239;28;20446;-71
2022/10/21 00:02:59;;;;;;;24.05;14.25;;;;;;;8.29;60.12;100973.81;5004445;28;20052;-71
2022/10/21 00:05:25;;;;;;;21.48;11.27;;;;;;;8.37;59.95;100984.00;5021739;28;20037;-71
2022/10/21 00:07:50;;;;;;;22.38;13.30;;;;;;;8.48;59.66;100981.94;5019854;28;20138;-72
2022/10/21 00:10:16;;;;;;;21.20;11.90;;;;;;;8.41;60.13;100977.81;5038133;28;20068;-71
2022/10/21 00:12:41;;;;;;;20.35;12.68;;;;;;;8.46;60.14;100980.28;5038579;28;20048;-71
2022/10/21 00:15:08;;;;;;;21.75;13.00;;;;;;;8.52;59.96;100970.53;5020408;28;20075;-71
2022/10/21 00:17:35;;;;;;;19.23;11.90;;;;;;;8.61;59.85;100976.38;5005981;28;20041;-71
2022/10/21 00:20:05;;;;;;;24.95;13.30;;;;;;;8.50;60.32;100972.31;5020008;28;20044;-71
2022/10/21 00:22:30;;;;;;;23.27;11.75;;;;;;;8.65;59.68;100973.63;5027973;28;20064;-71
2022/10/21 00:24:57;;;;;;;23.33;12.50;;;;;;;8.65;59.94;100972.75;5025939;28;20152;-71
2022/10/21 00:27:22;;;;;;;20.48;12.85;;;;;;;8.65;59.70;100964.94;5012085;28;20052;-71
2022/10/21 00:29:48;;;;;;;22.75;13.20;;;;;;;8.63;59.71;100967.63;5020418;28;20098;-71
2022/10/21 00:32:13;;;;;;;17.48;11.07;;;;;;;8.53;60.47;100964.41;5037125;28;20044;-71
2022/10/21 00:34:41;;;;;;;20.55;12.00;;;;;;;8.50;60.10;100961.91;5020740;28;20029;-71
2022/10/21 00:37:11;;;;;;;23.73;12.50;;;;;;;8.51;60.46;100953.19;5019226;28;20075;-71
2022/10/21 00:39:37;;;;;;;20.95;12.20;;;;;;;8.49;60.36;100947.16;5038209;28;20098;-71
2022/10/21 00:42:12;;;;;;;19.50;12.18;;;;;;;8.69;60.11;100950.91;5002049;28;20047;-71
2022/10/21 00:44:40;;;;;;;22.30;12.00;;;;;;;8.72;59.95;100938.69;5020801;28;20063;-71
2022/10/21 00:47:15;;;;;;;22.55;12.18;;;;;;;8.65;59.97;100944.09;5036807;28;20044;-71
2022/10/21 00:50:25;;;;;;;20.88;12.32;;;;;;;8.60;59.95;100943.38;5026790;28;20110;-71
2022/10/21 00:52:52;;;;;;;22.88;12.13;;;;;;;8.54;60.27;100934.88;5014315;28;20052;-72
2022/10/21 00:55:18;;;;;;;18.70;11.32;;;;;;;8.59;60.04;100933.88;5037163;28;20032;-71
2022/10/21 00:57:43;;;;;;;19.48;12.10;;;;;;;8.57;60.22;100924.34;5036829;28;20053;-71
2022/10/21 01:00:09;;;;;;;22.58;11.75;;;;;;;8.67;60.06;100924.94;5019242;28;20269;-72
2022/10/21 01:02:35;;;;;;;19.88;12.15;;;;;;;8.66;59.87;100924.97;5011784;28;20082;-71
2022/10/21 01:05:01;;;;;;;19.70;11.43;;;;;;;8.54;60.56;100918.41;5019960;28;20033;-71
2022/10/21 01:07:27;;;;;;;23.60;13.52;;;;;;;8.53;60.42;100922.72;5038014;28;20560;-71
2022/10/21 01:09:52;;;;;;;22.45;11.48;;;;;;;8.67;59.91;100916.25;5019490;28;20154;-71
2022/10/21 01:12:38;;;;;;;22.63;10.93;;;;;;;8.68;59.91;100915.34;5019346;28;20504;-71
2022/10/21 01:15:18;;;;;;;20.60;12.13;;;;;;;8.67;60.03;100906.69;5037725;28;20041;-71
2022/10/21 01:17:50;;;;;;;24.17;12.77;;;;;;;8.68;59.87;100904.94;5037228;28;20037;-72
2022/10/21 01:20:37;;;;;;;17.38;11.13;;;;;;;8.68;60.00;100907.53;5037084;28;20106;-72
2022/10/21 01:23:23;;;;;;;23.35;12.90;;;;;;;8.78;59.79;100906.38;5036606;28;20060;-70
2022/10/21 01:26:24;;;;;;;17.85;11.02;;;;;;;8.76;59.59;100901.22;5037844;28;20051;-72
2022/10/21 01:29:35;;;;;;;22.77;11.38;;;;;;;8.57;59.99;100885.28;5033513;28;20037;-72
2022/10/21 01:32:29;;;;;;;22.10;12.97;;;;;;;8.41;60.73;100883.19;5036090;28;20093;-73
2022/10/21 01:34:54;;;;;;;19.80;11.40;;;;;;;8.32;60.85;100885.19;5018453;28;20839;-71
2022/10/21 01:37:45;;;;;;;23.55;12.48;;;;;;;8.51;60.07;100888.06;5036332;28;20126;-72
2022/10/21 01:40:30;;;;;;;21.35;12.00;;;;;;;8.52;60.08;100884.56;5036278;28;20052;-70
2022/10/21 01:43:40;;;;;;;18.08;11.50;;;;;;;8.50;59.85;100888.97;5011286;28;20049;-72
2022/10/21 01:46:35;;;;;;;16.90;10.65;;;;;;;8.43;60.27;100891.81;4990005;28;20486;-72
2022/10/21 01:49:08;;;;;;;20.83;11.82;;;;;;;8.48;59.64;100893.38;5036390;28;20045;-71
2022/10/21 01:51:35;;;;;;;19.90;11.00;;;;;;;8.48;59.54;100877.75;5007289;28;20033;-73
2022/10/21 01:54:09;;;;;;;20.73;12.55;;;;;;;8.46;59.58;100873.50;5037272;28;20607;-70
2022/10/21 01:56:37;;;;;;;23.55;12.52;;;;;;;8.36;59.77;100870.31;5017983;28;20049;-71
2022/10/21 01:59:05;;;;;;;21.33;12.00;;;;;;;8.43;60.01;100871.00;5036597;28;20112;-71
2022/10/21 02:01:33;;;;;;;21.42;11.50;;;;;;;8.44;59.90;100863.09;5037464;28;20029;-70
2022/10/21 02:04:01;;;;;;;20.13;11.70;;;;;;;8.37;60.26;100861.59;5040637;28;20052;-71
2022/10/21 02:06:27;;;;;;;21.27;10.30;;;;;;;8.44;60.05;100852.69;5042405;28;20474;-71
2022/10/21 02:08:53;;;;;;;20.48;11.23;;;;;;;8.42;60.31;100836.25;5039558;28;20033;-71
2022/10/21 02:11:18;;;;;;;26.52;12.18;;;;;;;8.46;59.77;100839.63;5024220;28;20542;-70
2022/10/21 02:13:51;;;;;;;24.90;11.82;;;;;;;8.42;60.28;100844.06;5040220;28;20301;-72
2022/10/21 02:16:20;;;;;;;19.38;10.85;;;;;;;8.41;60.06;100844.97;5023262;28;20171;-71
2022/10/21 02:18:45;;;;;;;22.55;11.45;;;;;;;8.38;60.17;100855.47;5038787;28;20041;-72
2022/10/21 02:21:19;;;;;;;19.15;11.18;;;;;;;8.41;59.76;100841.53;5041702;28;20040;-71
2022/10/21 02:23:52;;;;;;;18.25;11.02;;;;;;;8.42;59.71;100838.84;5028209;28;20056;-71
2022/10/21 02:26:19;;;;;;;18.95;11.55;;;;;;;8.35;60.00;100837.34;5030571;28;20041;-71
2022/10/21 02:28:46;;;;;;;23.58;11.75;;;;;;;8.31;59.83;100833.13;5043666;28;20185;-71
2022/10/21 02:31:30;;;;;;;20.40;11.32;;;;;;;8.41;60.04;100825.91;5041914;28;20041;-71
2022/10/21 02:34:09;;;;;;;22.50;12.40;;;;;;;8.38;60.17;100831.19;5040710;28;20057;-71
2022/10/21 02:36:48;;;;;;;21.20;12.32;;;;;;;8.28;60.68;100815.84;5038972;28;20243;-71
2022/10/21 02:39:23;;;;;;;18.25;11.45;;;;;;;8.36;60.52;100813.03;5040187;28;20041;-71
2022/10/21 02:41:52;;;;;;;24.48;12.45;;;;;;;8.45;60.00;100817.94;5019980;28;20025;-71
2022/10/21 02:44:18;;;;;;;21.35;11.13;;;;;;;8.34;60.18;100807.88;5022992;28;20501;-71
2022/10/21 02:46:45;;;;;;;21.15;11.27;;;;;;;8.38;60.43;100805.16;5038579;28;20053;-71
2022/10/21 02:49:11;;;;;;;19.73;10.52;;;;;;;8.36;60.42;100818.25;5006428;28;20179;-71
2022/10/21 02:51:38;;;;;;;20.70;11.25;;;;;;;8.38;60.55;100816.41;5037414;28;20520;-71
2022/10/21 02:54:04;;;;;;;21.52;11.52;;;;;;;8.35;60.81;100822.56;5023090;28;20029;-71
2022/10/21 02:56:29;;;;;;;24.17;11.63;;;;;;;8.33;60.63;100819.16;5041322;28;20068;-71
2022/10/21 02:58:55;;;;;;;19.90;11.88;;;;;;;8.34;60.61;100807.00;5016831;28;20040;-70
2022/10/21 03:01:20;;;;;;;22.30;11.75;;;;;;;8.41;60.29;100800.72;5022331;28;20530;-71
2022/10/21 03:03:46;;;;;;;22.98;12.10;;;;;;;8.45;60.19;100797.09;5037630;28;20732;-70
2022/10/21 03:06:11;;;;;;;19.83;10.88;;;;;;;8.35;60.24;100795.69;5006643;28;20037;-72
2022/10/21 03:08:37;;;;;;;16.67;10.40;;;;;;;8.40;60.41;100803.34;5038285;28;20048;-71
2022/10/21 03:11:02;;;;;;;15.02;9.52;;;;;;;8.27;60.71;100803.75;5040098;28;20043;-72
2022/10/21 03:13:28;;;;;;;23.65;12.75;;;;;;;8.45;60.57;100797.09;5020757;28;20043;-71
2022/10/21 03:15:53;;;;;;;19.17;11.77;;;;;;;8.50;60.18;100803.00;5038716;28;20091;-71
2022/10/21 03:18:18;;;;;;;21.70;12.20;;;;;;;8.53;60.10;100805.50;5037853;28;20048;-71
2022/10/21 03:20:48;;;;;;;21.50;11.80;;;;;;;8.58;60.01;100807.97;4998894;28;20059;-72
2022/10/21 03:23:14;;;;;;;18.85;11.07;;;;;;;8.65;59.75;100813.81;5037792;28;20049;-71
2022/10/21 03:25:39;;;;;;;22.52;12.52;;;;;;;8.69;59.62;100811.06;5015964;28;20154;-70
2022/10/21 03:28:04;;;;;;;20.80;11.70;;;;;;;8.68;59.83;100819.78;5038872;28;20608;-71
2022/10/21 03:30:30;;;;;;;22.05;12.05;;;;;;;8.73;59.59;100811.84;5020863;28;20029;-73
2022/10/21 03:32:56;;;;;;;22.63;11.13;;;;;;;8.76;59.79;100823.03;5039315;28;20044;-72
2022/10/21 03:35:21;;;;;;;19.95;11.25;;;;;;;8.87;59.67;100808.78;5020240;28;20079;-72
2022/10/21 03:37:47;;;;;;;19.10;11.32;;;;;;;8.91;59.66;100811.22;5038092;28;20049;-71
2022/10/21 03:40:12;;;;;;;21.30;11.82;;;;;;;8.94;59.52;100811.13;5020475;28;20051;-71
2022/10/21 03:42:38;;;;;;;19.08;11.38;;;;;;;9.09;59.31;100808.91;5020338;28;20041;-70
2022/10/21 03:45:03;;;;;;;19.33;12.00;;;;;;;9.15;59.13;100808.69;5038806;28;20492;-71
2022/10/21 03:47:29;;;;;;;21.63;11.02;;;;;;;9.14;59.41;100796.53;5020846;28;20561;-71
2022/10/21 03:49:54;;;;;;;20.80;10.93;;;;;;;9.18;59.41;100803.34;5019598;28;20196;-71
2022/10/21 03:52:20;;;;;;;16.13;10.27;;;;;;;9.27;59.14;100803.03;5028749;28;20537;-72
2022/10/21 03:54:45;;;;;;;19.92;11.38;;;;;;;9.30;59.38;100794.28;5039634;28;20029;-70
2022/10/21 03:57:10;;;;;;;18.80;10.27;;;;;;;9.29;59.29;100782.97;5037189;28;20398;-71
2022/10/21 03:59:36;;;;;;;18.30;11.10;;;;;;;9.30;59.14;100795.13;5038693;28;20037;-71
2022/10/21 04:02:01;;;;;;;18.25;10.45;;;;;;;9.36;59.35;100797.47;5036400;28;20122;-70
2022/10/21 04:04:27;;;;;;;16.65;10.35;;;;;;;9.38;59.07;100795.66;5039735;28;20460;-72
2022/10/21 04:06:52;;;;;;;18.95;10.80;;;;;;;9.45;58.80;100795.44;5018986;28;20114;-73
2022/10/21 04:09:17;;;;;;;18.95;10.40;;;;;;;9.48;58.84;100800.56;5039446;28;20565;-71
2022/10/21 04:11:43;;;;;;;15.30;9.90;;;;;;;9.52;58.71;100807.34;5019392;28;20013;-71
2022/10/21 04:14:08;;;;;;;17.90;11.05;;;;;;;9.51;58.54;100810.88;5039566;28;20044;-71
2022/10/21 04:16:34;;;;;;;16.20;10.65;;;;;;;9.55;58.83;100802.03;5018296;28;20114;-70
2022/10/21 04:19:00;;;;;;;19.23;11.13;;;;;;;9.58;58.45;100800.16;5039626;28;20076;-71
2022/10/21 04:21:25;;;;;;;19.58;10.80;;;;;;;9.56;58.46;100788.06;5038702;28;20563;-70
2022/10/21 04:23:51;;;;;;;20.00;11.23;;;;;;;9.51;58.65;100784.78;5035829;28;20139;-70
2022/10/21 04:26:16;;;;;;;15.55;10.55;;;;;;;9.45;58.65;100780.63;5037999;28;20429;-70
2022/10/21 04:28:41;;;;;;;16.63;9.70;;;;;;;9.36;58.76;100775.75;5036113;28;20102;-70
2022/10/21 04:31:07;;;;;;;19.33;10.55;;;;;;;9.19;59.75;100779.00;5038132;28;20051;-71
2022/10/21 04:33:32;;;;;;;20.55;10.98;;;;;;;9.19;59.26;100779.00;5036238;28;20076;-70
2022/10/21 04:35:58;;;;;;;15.93;9.50;;;;;;;9.14;59.62;100779.16;5021029;28;20040;-69
2022/10/21 04:38:24;;;;;;;20.50;11.30;;;;;;;9.14;59.74;100775.69;5035765;28;20041;-70
2022/10/21 04:41:01;;;;;;;19.25;10.98;;;;;;;9.07;60.06;100763.78;5037333;28;20033;-69
2022/10/21 04:43:27;;;;;;;19.38;11.60;;;;;;;9.08;59.81;100768.09;5035901;28;20594;-70
2022/10/21 04:45:53;;;;;;;18.33;10.65;;;;;;;9.01;59.97;100761.38;5037852;28;20075;-70
2022/10/21 04:48:20;;;;;;;22.02;11.45;;;;;;;9.05;59.98;100755.16;5035785;28;20053;-70
2022/10/21 04:50:50;;;;;;;19.17;10.82;;;;;;;9.04;60.01;100753.47;5036136;28;20029;-70
2022/10/21 04:53:16;;;;;;;17.33;9.65;;;;;;;9.22;59.70;100742.38;5018002;28;20037;-71
2022/10/21 04:55:41;;;;;;;18.33;10.88;;;;;;;9.24;59.51;100739.72;5037129;28;20040;-70
2022/10/21 04:58:07;;;;;;;21.25;11.05;;;;;;;9.24;59.56;100735.34;5035589;28;20052;-71
2022/10/21 05:00:32;;;;;;;19.98;10.93;;;;;;;9.17;59.66;100745.16;5036635;28;20390;-70
2022/10/21 05:02:58;;;;;;;18.33;10.82;;;;;;;9.15;59.75;100743.50;5019898;28;20128;-70
2022/10/21 05:05:24;;;;;;;21.15;10.82;;;;;;;9.15;59.76;100738.28;5037043;28;20029;-70
2022/10/21 05:07:49;;;;;;;20.33;11.25;;;;;;;9.04;60.14;100750.84;5037023;28;20045;-70
2022/10/21 05:10:15;;;;;;;21.98;11.73;;;;;;;8.89;60.29;100745.25;5013316;28;20029;-72
2022/10/21 05:12:40;;;;;;;21.80;11.60;;;;;;;9.01;60.03;100732.69;5002146;28;20147;-71
2022/10/21 05:15:06;;;;;;;22.55;12.05;;;;;;;8.96;60.49;100749.38;5019016;28;20041;-70
2022/10/21 05:17:31;;;;;;;18.75;11.48;;;;;;;8.81;60.64;100752.53;5036514;28;20040;-70
2022/10/21 05:19:57;;;;;;;18.15;11.13;;;;;;;9.05;60.22;100745.56;5037221;28;20090;-70
2022/10/21 05:22:22;;;;;;;20.27;11.82;;;;;;;8.99;60.15;100745.81;5036897;28;20090;-70
2022/10/21 05:24:48;;;;;;;22.33;12.07;;;;;;;8.98;60.15;100729.31;5019954;28;20102;-71
2022/10/21 05:27:13;;;;;;;20.67;11.85;;;;;;;9.01;60.67;100722.28;5035339;28;20060;-70
2022/10/21 05:29:39;;;;;;;20.95;11.52;;;;;;;9.06;60.40;100722.97;5015477;28;20040;-70
2022/10/21 05:32:04;;;;;;;22.30;12.23;;;;;;;8.90;61.04;100715.69;5035464;28;20045;-71
2022/10/21 05:34:29;;;;;;;25.38;11.35;;;;;;;9.01;60.90;100722.28;5020058;28;20036;-71
2022/10/21 05:36:55;;;;;;;24.02;11.63;;;;;;;9.10;60.67;100708.94;5018677;28;20969;-70
2022/10/21 05:39:20;;;;;;;19.90;11.10;;;;;;;9.13;60.52;100706.19;5019319;28;20545;-71
2022/10/21 05:41:46;;;;;;;20.00;11.68;;;;;;;9.11;60.59;100705.41;5035137;28;20465;-70
2022/10/21 05:44:11;;;;;;;26.00;13.40;;;;;;;9.04;60.51;100691.75;5036813;28;20500;-70
2022/10/21 05:46:37;;;;;;;22.10;10.75;;;;;;;8.97;60.93;100704.16;5016946;28;20040;-70
2022/10/21 05:49:03;;;;;;;17.75;10.63;;;;;;;9.09;60.37;100702.00;5037889;28;20040;-70
2022/10/21 05:51:28;;;;;;;23.20;12.40;;;;;;;8.97;60.76;100711.13;5018965;28;20460;-70
2022/10/21 05:53:54;;;;;;;18.88;11.32;;;;;;;9.26;60.57;100711.81;5035233;28;20059;-71
2022/10/21 05:56:21;;;;;;;17.98;10.48;;;;;;;9.23;59.93;100701.47;5037034;28;20123;-71
2022/10/21 05:58:46;;;;;;;23.98;12.70;;;;;;;9.29;59.78;100707.31;5034478;28;20056;-71
2022/10/21 06:01:12;;;;;;;24.83;11.60;;;;;;;9.21;59.87;100704.16;5037173;28;20402;-70
2022/10/21 06:03:38;;;;;;;22.25;12.68;;;;;;;9.25;59.86;100710.94;5017308;28;20123;-71
2022/10/21 06:06:06;;;;;;;24.77;13.18;;;;;;;9.26;60.16;100711.81;5012065;28;20517;-71
2022/10/21 06:08:34;;;;;;;23.52;11.43;;;;;;;9.28;59.90;100716.06;5034595;28;20045;-70
2022/10/21 06:11:03;;;;;;;19.95;11.77;;;;;;;9.32;59.78;100722.88;5038086;28;20033;-70
2022/10/21 06:13:29;;;;;;;20.40;12.85;;;;;;;9.34;59.68;100712.38;5018313;28;20078;-70
2022/10/21 06:15:55;;;;;;;22.33;11.07;;;;;;;9.32;59.97;100712.44;5036652;28;20036;-72
2022/10/21 06:18:21;;;;;;;21.83;11.30;;;;;;;9.36;60.01;100714.00;5000347;28;20528;-70
2022/10/21 06:20:46;;;;;;;19.77;11.45;;;;;;;9.35;59.89;100712.31;5036423;28;20524;-71
2022/10/21 06:23:14;;;;;;;22.77;11.50;;;;;;;9.37;60.09;100718.34;5001633;28;20056;-69
2022/10/21 06:25:39;;;;;;;18.70;11.05;;;;;;;9.40;60.50;100719.97;5008627;28;20095;-70
2022/10/21 06:28:05;;;;;;;22.13;11.65;;;;;;;9.38;60.36;100727.00;5018101;28;20079;-71
2022/10/21 06:30:30;;;;;;;20.55;11.38;;;;;;;9.48;59.95;100725.75;5036207;28;20120;-70
2022/10/21 06:32:56;;;;;;;22.83;11.52;;;;;;;9.55;59.75;100734.22;5018707;28;20135;-71
2022/10/21 06:35:21;;;;;;;22.65;11.05;;;;;;;9.57;59.93;100732.41;5017675;28;20611;-72
2022/10/21 06:37:47;;;;;;;21.45;11.85;;;;;;;9.58;59.86;100732.31;5036512;28;20045;-71
2022/10/21 06:40:12;;;;;;;19.98;11.63;;;;;;;9.59;59.96;100746.22;5035975;28;20069;-72
2022/10/21 06:42:38;;;;;;;22.23;13.30;;;;;;;9.64;60.07;100744.28;5035405;28;20634;-71
2022/10/21 06:45:04;;;;;;;25.83;12.35;;;;;;;9.71;59.98;100745.75;5035654;28;20033;-71
2022/10/21 06:47:29;;;;;;;17.83;11.10;;;;;;;9.73;59.84;100745.69;5036527;28;20045;-72
2022/10/21 06:49:55;;;;;;;19.10;11.15;;;;;;;9.76;59.82;100753.41;5005052;28;20636;-71
2022/10/21 06:52:20;;;;;;;20.13;12.15;;;;;;;9.80;59.99;100755.88;5038420;28;20045;-71
2022/10/21 06:54:46;;;;;;;21.10;11.65;;;;;;;9.87;59.82;100756.47;5040497;28;20116;-70
2022/10/21 06:57:11;;;;;;;22.80;12.05;;;;;;;9.88;59.52;100755.59;5038674;28;20068;-71
2022/10/21 06:59:36;;;;;;;18.75;11.43;;;;;;;9.88;59.70;100763.41;5022126;28;20737;-70
2022/10/21 07:02:02;;;;;;;22.05;10.93;;;;;;;9.95;59.67;100758.81;5020893;28;20152;-70
2022/10/21 07:04:28;;;;;;;22.15;12.27;;;;;;;10.02;59.76;100771.53;5041200;28;20116;-70
2022/10/21 07:06:53;;;;;;;17.88;10.90;;;;;;;10.10;59.75;100766.03;5011454;28;20107;-71
2022/10/21 07:09:19;;;;;;;17.70;10.65;;;;;;;10.15;59.78;100756.25;5030189;28;20040;-71
2022/10/21 07:11:44;;;;;;;19.30;11.00;;;;;;;10.12;59.61;100766.78;5037533;28;20382;-72
2022/10/21 07:14:11;;;;;;;19.70;11.85;;;;;;;10.20;59.40;100763.91;5023701;28;20151;-70
2022/10/21 07:16:37;;;;;;;20.83;12.57;;;;;;;10.18;59.53;100765.72;5020131;28;20393;-70
2022/10/21 07:19:03;;;;;;;24.77;11.60;;;;;;;10.13;59.70;100758.06;5041657;28;20128;-70
2022/10/21 07:21:30;;;;;;;22.75;12.38;;;;;;;10.12;59.73;100756.34;5031655;28;20024;-71
2022/10/21 07:23:57;;;;;;;26.27;13.95;;;;;;;10.62;61.57;100757.81;5038598;28;20049;-71
2022/10/21 07:26:23;;;;;;;27.65;14.50;;;;;;;12.44;58.00;100753.88;5022002;28;21503;-71
2022/10/21 07:28:49;;;;;;;23.27;13.82;;;;;;;12.99;54.49;100754.66;4997340;28;20405;-70
2022/10/21 07:31:20;;;;;;;21.73;11.50;;;;;;;12.27;54.28;100748.66;5039020;28;20056;-70
2022/10/21 07:33:46;;;;;;;39.60;19.35;;;;;;;11.75;55.51;100746.72;5037579;28;20095;-71
2022/10/21 07:36:15;;;;;;;22.83;13.10;;;;;;;12.22;55.53;100755.88;5021574;28;20041;-71
2022/10/21 07:38:45;;;;;;;20.20;11.20;;;;;;;13.77;53.26;100754.91;5019866;28;20080;-71
2022/10/21 07:41:19;;;;;;;15.93;10.27;;;;;;;14.62;50.74;100756.22;5037616;28;20171;-71
2022/10/21 07:43:45;;;;;;;16.15;10.38;;;;;;;14.94;47.80;100767.44;5037495;28;20076;-71
2022/10/21 07:46:11;;;;;;;17.30;10.23;;;;;;;14.26;48.59;100760.03;5021738;28;20040;-71
2022/10/21 07:48:37;;;;;;;13.52;8.65;;;;;;;14.23;50.58;100754.94;5004477;28;20636;-72
2022/10/21 07:51:07;;;;;;;14.82;8.65;;;;;;;14.20;49.32;100744.59;5039941;28;20040;-70
2022/10/21 07:53:33;;;;;;;16.23;10.02;;;;;;;13.99;49.80;100747.53;5037999;28;20311;-71
2022/10/21 07:56:05;;;;;;;17.83;8.52;;;;;;;15.35;48.20;100750.97;5021906;28;20035;-71
2022/10/21 07:58:31;;;;;;;16.55;9.15;;;;;;;16.23;46.10;100743.59;5036148;28;20047;-71
2022/10/21 08:00:59;;;;;;;14.50;8.40;;;;;;;15.28;47.21;100747.00;5039811;28;20044;-72
2022/10/21 08:03:25;;;;;;;16.25;8.40;;;;;;;14.39;48.07;100758.38;5010156;28;20037;-70
2022/10/21 08:05:52;;;;;;;13.52;9.45;;;;;;;13.69;49.62;100765.81;5038749;28;20029;-73
2022/10/21 08:08:20;;;;;;;14.00;10.13;;;;;;;13.52;50.28;100759.69;5036169;28;20514;-70
2022/10/21 08:10:46;;;;;;;12.55;8.52;;;;;;;13.28;51.22;100756.59;5038720;28;20040;-72
2022/10/21 08:13:13;;;;;;;17.83;10.07;;;;;;;12.96;52.24;100758.31;5008859;28;20414;-70
2022/10/21 08:15:47;;;;;;;19.10;9.80;;;;;;;12.84;52.96;100757.16;5020593;28;20661;-71
2022/10/21 08:18:13;;;;;;;20.40;9.05;;;;;;;12.78;52.95;100756.59;5037514;28;20064;-70
2022/10/21 08:20:42;;;;;;;15.82;8.82;;;;;;;12.82;53.97;100758.16;5038373;28;20032;-72
2022/10/21 08:23:09;;;;;;;19.55;10.90;;;;;;;14.08;52.04;100760.13;5037621;28;20473;-73
2022/10/21 08:25:35;;;;;;;13.85;9.27;;;;;;;14.69;49.38;100755.75;5003005;28;20786;-72
2022/10/21 08:28:02;;;;;;;16.25;10.80;;;;;;;14.87;49.23;100745.06;5038345;28;20051;-71
2022/10/21 08:30:31;;;;;;;19.55;9.15;;;;;;;14.56;49.33;100757.41;5038248;28;20516;-70
2022/10/21 08:32:58;;;;;;;17.60;9.55;;;;;;;14.11;50.60;100749.44;5019548;28;20057;-71
2022/10/21 08:35:25;;;;;;;14.80;9.32;;;;;;;13.73;51.10;100751.59;5011134;28;20394;-73
2022/10/21 08:37:50;;;;;;;17.08;9.43;;;;;;;13.42;51.93;100753.22;5017739;28;20044;-70
2022/10/21 08:40:17;;;;;;;13.88;9.82;;;;;;;13.47;52.54;100755.59;5021015;28;20047;-71
2022/10/21 08:42:44;;;;;;;16.35;8.55;;;;;;;13.53;52.61;100761.38;5000344;28;20186;-71
2022/10/21 08:45:32;;;;;;;16.65;9.60;;;;;;;13.15;52.83;100759.97;5037169;28;20161;-70
2022/10/21 08:48:01;;;;;;;19.00;9.13;;;;;;;13.37;53.14;100754.41;5037346;28;20049;-71
2022/10/21 08:50:33;;;;;;;18.50;9.75;;;;;;;13.47;53.11;100752.97;5038568;28;20048;-71
2022/10/21 08:53:10;;;;;;;14.73;9.20;;;;;;;13.57;53.05;100756.84;5037949;28;20052;-71
2022/10/21 08:55:41;;;;;;;18.27;9.38;;;;;;;13.59;52.76;100752.34;5038290;28;20063;-71
2022/10/21 08:58:16;;;;;;;17.60;10.15;;;;;;;14.02;53.57;100755.22;5036822;28;20155;-71
2022/10/21 09:00:53;;;;;;;17.65;8.88;;;;;;;14.76;51.13;100736.03;5021034;28;20080;-72
2022/10/21 09:03:34;;;;;;;20.88;9.85;;;;;;;14.88;50.13;100741.50;5010598;28;20045;-71
2022/10/21 09:06:14;;;;;;;18.38;10.30;;;;;;;14.87;50.58;100739.81;5038242;28;20033;-71
2022/10/21 09:08:59;;;;;;;19.40;9.30;;;;;;;14.92;50.92;100738.59;5036937;28;20300;-71
2022/10/21 09:11:38;;;;;;;17.85;10.10;;;;;;;15.48;48.25;100737.84;5036782;28;20028;-70
2022/10/21 09:14:24;;;;;;;18.60;10.15;;;;;;;15.90;48.84;100728.97;5037965;28;20409;-71
2022/10/21 09:16:56;;;;;;;15.45;8.95;;;;;;;15.74;49.17;100731.75;5019314;28;20553;-71
2022/10/21 09:19:21;;;;;;;;;;;;;;;16.58;46.81;100733.31;5019616;28;20037;-71
2022/10/21 09:22:11;;;;;;;18.57;9.07;;;;;;;16.85;47.27;100731.56;5021161;28;19920;-71
2022/10/21 09:25:02;;;;;;;13.15;7.97;;;;;;;16.85;46.78;100729.78;4996122;28;20632;-71
2022/10/21 09:27:28;;;;;;;15.85;9.55;;;;;;;16.28;46.56;100733.56;5017995;28;20037;-71
2022/10/21 09:30:04;;;;;;;13.85;9.63;;;;;;;16.30;46.29;100729.03;5036941;28;20120;-71
2022/10/21 09:32:41;;;;;;;11.82;8.20;;;;;;;15.78;48.86;100721.88;5037125;28;20497;-71
2022/10/21 09:35:21;;;;;;;15.68;8.18;;;;;;;15.45;49.48;100714.34;5038483;28;20384;-71
2022/10/21 09:37:52;;;;;;;17.13;9.13;;;;;;;15.70;49.56;100716.25;5009921;28;20046;-71
2022/10/21 09:40:25;;;;;;;19.30;8.38;;;;;;;15.70;48.63;100719.72;5037357;28;20048;-71
2022/10/21 09:42:54;;;;;;;13.73;9.02;;;;;;;15.39;48.90;100710.28;5034269;28;20080;-71
2022/10/21 09:45:40;;;;;;;10.23;7.60;;;;;;;15.38;49.81;100706.00;5020202;28;20504;-71
2022/10/21 09:48:20;;;;;;;17.27;8.85;;;;;;;15.45;49.54;100709.91;5019406;28;20068;-71
2022/10/21 09:50:51;;;;;;;13.05;8.95;;;;;;;15.53;49.35;100707.66;5011678;28;20060;-70
2022/10/21 09:53:21;;;;;;;15.85;8.63;;;;;;;15.65;49.20;100705.19;5036863;28;20168;-72
2022/10/21 09:55:50;;;;;;;18.30;8.43;;;;;;;15.63;48.26;100701.78;5037773;28;20029;-72
2022/10/21 09:58:43;;;;;;;15.70;8.02;;;;;;;15.66;50.13;100702.44;5036721;28;20037;-72
2022/10/21 10:01:15;;;;;;;12.60;8.30;;;;;;;15.30;49.23;100713.50;5037134;28;20082;-71
2022/10/21 10:03:44;;;;;;;12.55;7.32;;;;;;;15.36;48.92;100711.34;4997007;28;20077;-71
2022/10/21 10:06:10;;;;;;;12.35;8.70;;;;;;;15.43;49.49;100713.59;5036980;28;20115;-71
2022/10/21 10:08:46;;;;;;;13.95;7.72;;;;;;;15.57;49.58;100724.97;5036801;28;20057;-71
2022/10/21 10:11:18;;;;;;;11.65;8.43;;;;;;;15.58;49.30;100726.63;5037795;28;20131;-72
2022/10/21 10:13:43;;;;;;;;;;;;;;;15.68;50.08;100726.88;5019803;28;20201;-71
2022/10/21 10:16:21;;;;;;;22.33;9.20;;;;;;;15.63;49.14;100728.97;5019441;28;19916;-71
2022/10/21 10:18:47;;;;;;;17.30;7.72;;;;;;;15.74;48.42;100728.28;5036403;28;20451;-71
2022/10/21 10:21:16;;;;;;;15.68;8.02;;;;;;;15.68;49.17;100728.69;5037328;28;20040;-71
2022/10/21 10:23:54;;;;;;;16.02;8.68;;;;;;;15.89;49.99;100737.84;5039192;28;20499;-71
2022/10/21 10:26:29;;;;;;;13.18;9.27;;;;;;;16.05;48.39;100734.25;5041406;28;20814;-72
2022/10/21 10:29:17;;;;;;;14.15;7.90;;;;;;;16.60;48.07;100736.69;5040454;28;20041;-72
2022/10/21 10:31:48;;;;;;;14.60;8.45;;;;;;;16.65;46.89;100725.81;5039166;28;20067;-71
2022/10/21 10:34:22;;;;;;;11.75;7.75;;;;;;;16.57;47.35;100728.97;5040828;28;20051;-71
2022/10/21 10:36:48;;;;;;;11.02;7.43;;;;;;;17.11;47.14;100732.38;5039880;28;20044;-71
2022/10/21 10:39:24;;;;;;;13.82;7.30;;;;;;;17.41;46.66;100729.38;5014106;28;20036;-72
2022/10/21 10:41:51;;;;;;;13.20;8.00;;;;;;;17.32;45.71;100719.47;5040611;28;20056;-72
2022/10/21 10:44:47;;;;;;;20.00;8.02;;;;;;;17.03;46.27;100719.72;5023153;28;20044;-70
2022/10/21 10:47:46;;;;;;;17.60;7.30;;;;;;;17.58;45.79;100718.50;5039376;28;20164;-71
2022/10/21 10:50:36;;;;;;;11.85;6.63;;;;;;;17.80;44.73;100711.63;5041336;28;20347;-72
2022/10/21 10:53:20;;;;;;;12.15;7.45;;;;;;;17.62;45.41;100709.34;5041081;28;20492;-71
2022/10/21 10:55:54;;;;;;;12.55;6.82;;;;;;;17.86;45.91;100716.47;5040252;28;20086;-72
2022/10/21 10:58:21;;;;;;;14.48;7.50;;;;;;;17.64;45.33;100718.03;5041183;28;20506;-71
2022/10/21 11:00:50;;;;;;;10.48;6.00;;;;;;;18.46;43.59;100719.97;5040356;28;20040;-70
2022/10/21 11:03:27;;;;;;;16.23;6.68;;;;;;;18.81;42.82;100717.25;5040845;28;20049;-71
2022/10/21 11:06:04;;;;;;;11.60;6.47;;;;;;;19.06;42.77;100718.03;5040467;28;20028;-71
2022/10/21 11:08:37;;;;;;;11.00;5.85;;;;;;;19.28;40.88;100711.88;5022434;28;20098;-71
2022/10/21 11:11:08;;;;;;;9.50;5.50;;;;;;;19.67;42.17;100707.84;5023578;28;20032;-71
2022/10/21 11:13:36;;;;;;;12.95;6.03;;;;;;;19.62;40.18;100702.06;5038786;28;20033;-71
2022/10/21 11:16:30;;;;;;;8.68;5.22;;;;;;;19.74;42.25;100708.19;5042166;28;20044;-71
2022/10/21 11:19:14;;;;;;;10.27;6.00;;;;;;;19.44;41.99;100700.88;5036847;28;20103;-70
2022/10/21 11:21:51;;;;;;;12.70;6.22;;;;;;;18.96;42.29;100701.16;5039390;28;20036;-71
2022/10/21 11:24:35;;;;;;;7.47;5.97;;;;;;;18.53;43.35;100709.75;5022904;28;20041;-71
2022/10/21 11:27:13;;;;;;;5.88;5.15;;;;;;;19.08;42.45;100708.16;5039596;28;20052;-72
2022/10/21 11:30:02;;;;;;;10.20;5.85;;;;;;;18.97;42.17;100716.94;5041093;28;20029;-73